Dunksburg, Missouri
Current Conditions -  °F | °C
As of 6:31 PM on Sunday 25 Jan 2015 (Local Time) from KSZL Reporting Station
Overcast Overcast  
Wind Chill: 26°   Ceiling: 1400
Heat Index: 34°   Visibility: 10mi
Dew Point: 32°   Wind: 9mph
Humidity: 93%   Direction: 360°N
Pressure: 30.03"   Gusts: NA
Location:  38.9707°N, 93.4332°W
Report Text: KSZL 260031Z AUTO 36008KT 10SM OVC014 01/00 A3003 RMK AO2
Loading
Personal Weather Stations






























Interactive Weather Map New forecast layout! Learn more

10-Day Weather Forecast

Advertisements
Track Severe Weather on mobile